Tampa, FL

4:20 PM EDT on September 22, 2014 (GMT -0400)
MacDill Air Force Base | Change Station
CLOSE
Current Station
Airport
Location: Tampa Macdill AFB,
Elevation: 13 ft
Nearby Weather Stations
Active Advisory: Flood Warning

Elev 13 ft 27.85 °N, 82.52 °W | Updated 2 minutes ago

Rain
Rain
73 °F
Feels Like 73 °F
N
7
Wind Variable Wind from South

Today
High -- | Low -- °F
--% Chance of Precip.
Yesterday
High -- | Low -- °F
Precip. -- in
7:18 AM 7:26 PM
Waning Crescent, 2% visible
Pressure 29.98 in
Visibility 10.0 miles
Clouds Mostly Cloudy 2700 ft
Dew Point 73 °F
Humidity 100%
Rainfall 0.36 in
Snow Depth Not available.
UV 3 out of 12
Pollen 2.10 out of 12
Air Quality Not available.
Flu Activity Not available.
SPECI KMCF 222018Z AUTO 19006KT 10SM -RA BKN027 23/23 A2998 RMK AO2 CIG 027V039

More Conditions Fewer Conditions

Pressure 29.98 in
Visibility 10.0 miles
Clouds Mostly Cloudy 2700 ft
Dew Point 73 °F
Humidity 100%
Rainfall 0.36 in
Snow Depth Not available.
UV 3 out of 12
Pollen 2.10 out of 12
Air Quality Not available.
Flu Activity Not available.
SPECI KMCF 222018Z AUTO 19006KT 10SM -RA BKN027 23/23 A2998 RMK AO2 CIG 027V039

More Conditions Fewer Conditions

10-Day Weather Forecast

Almanac

Astronomy

Sep. 22, 2014 Rise Set
Actual Time 7:18 AM EDT 7:26 PM EDT
Civil Twilight 6:55 AM EDT 7:49 PM EDT
Nautical Twilight 6:27 AM EDT 8:17 PM EDT
Astronomical Twilight 6:00 AM EDT 8:44 PM EDT
Moon 5:51 AM EDT 6:30 PM EDT
Length of Visible Light 12h 54m
Length of Day
12h 07m
Tomorrow will be 1m 39s shorter.
Waning Crescent, 2% of the Moon is Illuminated
Today
Waning Crescent
Sep 24
New
Oct 1
First Quarter
Oct 8
Full
Oct 15
Last Quarter

Today's Extremes

State Highs State Lows

Community

WunderPhotos

Upload Photos

1,755,523 photos uploaded!

WunderBlogs® & News

Nearby

Snow Depth

Station Depth Elevation
No new snow has been reported.

Earthquake Activity

City Distance Mag. Time & Date
No recent earthquake activity has been reported nearby.
Minimum magnitude displayed is 2.5.

Coastal Water Temperatures

Place Temperature
St Petersburg, FL 84.9 °F
Old Port Tampa, FL 82.9 °F

Nearby Weather Stations